createdAt,value
2019-05-28T00:00:06.959Z,0.00
2019-05-28T00:01:06.946Z,0.00
2019-05-28T00:02:06.935Z,0.00
2019-05-28T00:03:06.926Z,0.00
2019-05-28T00:04:06.920Z,0.00
2019-05-28T00:05:06.903Z,0.00
2019-05-28T00:06:06.899Z,0.00
2019-05-28T00:07:06.879Z,0.00
2019-05-28T00:08:06.879Z,0.00
2019-05-28T00:09:06.861Z,0.00
2019-05-28T00:10:07.283Z,0.00
2019-05-28T00:11:06.834Z,0.00
2019-05-28T00:12:06.824Z,0.00
2019-05-28T00:13:06.813Z,0.00
2019-05-28T00:14:06.806Z,0.00
2019-05-28T00:15:06.792Z,0.00
2019-05-28T00:16:09.888Z,0.00
2019-05-28T00:17:06.772Z,0.00
2019-05-28T00:18:06.808Z,0.00
2019-05-28T00:19:06.746Z,0.00
2019-05-28T00:20:06.736Z,0.00
2019-05-28T00:21:06.726Z,0.00
2019-05-28T00:22:06.720Z,0.00
2019-05-28T00:23:06.705Z,0.00
2019-05-28T00:24:06.690Z,0.00
2019-05-28T00:25:06.677Z,0.00
2019-05-28T00:26:06.667Z,0.00
2019-05-28T00:27:06.657Z,0.00
2019-05-28T00:28:06.650Z,0.00
2019-05-28T00:29:06.632Z,0.00
2019-05-28T00:30:19.070Z,0.00
2019-05-28T00:31:07.611Z,0.00
2019-05-28T00:32:06.600Z,0.00
2019-05-28T00:33:06.588Z,0.00
2019-05-28T00:34:06.584Z,0.00
2019-05-28T00:35:06.568Z,0.00
2019-05-28T00:36:06.568Z,0.00
2019-05-28T00:37:06.546Z,0.00
2019-05-28T00:38:06.532Z,0.00
2019-05-28T00:39:06.528Z,0.00
2019-05-28T00:40:06.517Z,0.00
2019-05-28T00:41:06.500Z,0.00
2019-05-28T00:42:06.489Z,0.00
2019-05-28T00:43:06.477Z,0.00
2019-05-28T00:44:06.513Z,0.00
2019-05-28T00:45:06.454Z,0.00
2019-05-28T00:46:06.449Z,0.00
2019-05-28T00:47:06.435Z,0.00
2019-05-28T00:48:06.420Z,0.00
2019-05-28T00:49:06.409Z,0.00
2019-05-28T00:50:06.399Z,0.00
2019-05-28T00:51:06.387Z,0.00
2019-05-28T00:52:06.395Z,0.00
2019-05-28T00:53:06.364Z,0.00
2019-05-28T00:54:06.355Z,0.00
2019-05-28T00:55:06.342Z,0.00
2019-05-28T00:56:06.332Z,0.00
2019-05-28T00:57:06.319Z,0.00
2019-05-28T00:58:06.317Z,0.00
2019-05-28T00:59:06.306Z,0.00
2019-05-28T01:00:06.286Z,0.00
2019-05-28T01:01:06.276Z,0.00
2019-05-28T01:02:06.266Z,0.00
2019-05-28T01:03:06.254Z,0.00
2019-05-28T01:04:06.249Z,0.00
2019-05-28T01:05:06.250Z,0.00
2019-05-28T01:06:06.218Z,0.00
2019-05-28T01:07:06.214Z,0.00
2019-05-28T01:08:06.196Z,0.00
2019-05-28T01:09:06.187Z,0.00
2019-05-28T01:10:06.187Z,0.00
2019-05-28T01:11:06.167Z,0.00
2019-05-28T01:12:06.153Z,0.00
2019-05-28T01:13:06.143Z,0.00
2019-05-28T01:14:06.132Z,0.00
2019-05-28T01:15:06.121Z,0.00
2019-05-28T01:16:06.128Z,0.00
2019-05-28T01:17:06.096Z,0.00
2019-05-28T01:18:06.087Z,0.00
2019-05-28T01:19:06.073Z,0.00
2019-05-28T01:20:06.062Z,0.00
2019-05-28T01:21:06.051Z,0.00
2019-05-28T01:22:06.047Z,0.00
2019-05-28T01:23:06.030Z,0.00
2019-05-28T01:24:06.039Z,0.00
2019-05-28T01:25:06.011Z,0.00
2019-05-28T01:26:05.998Z,0.00
2019-05-28T01:27:05.989Z,0.00
2019-05-28T01:28:05.984Z,0.00
2019-05-28T01:29:05.962Z,0.00
2019-05-28T01:30:05.989Z,0.00
2019-05-28T01:31:05.943Z,0.00
2019-05-28T01:32:05.929Z,0.00
2019-05-28T01:33:05.918Z,0.00
2019-05-28T01:34:05.913Z,0.00
2019-05-28T01:35:05.896Z,0.00
2019-05-28T01:36:05.885Z,0.00
2019-05-28T01:37:05.874Z,0.00
2019-05-28T01:38:08.510Z,0.00
2019-05-28T01:39:05.850Z,0.00
2019-05-28T01:40:05.847Z,0.00
2019-05-28T01:41:05.828Z,0.00
2019-05-28T01:42:05.817Z,0.00
2019-05-28T01:43:05.806Z,0.00
2019-05-28T01:44:05.795Z,0.00
2019-05-28T01:45:05.784Z,0.00
2019-05-28T01:46:05.785Z,0.00
2019-05-28T01:47:05.764Z,0.00
2019-05-28T01:48:05.750Z,0.00
2019-05-28T01:49:05.740Z,0.00
2019-05-28T01:50:05.726Z,0.00
2019-05-28T01:51:05.718Z,0.00
2019-05-28T01:52:05.730Z,0.00
2019-05-28T01:53:05.694Z,0.00
2019-05-28T01:54:05.682Z,0.00
2019-05-28T01:55:05.671Z,0.00
2019-05-28T01:56:05.661Z,0.00
2019-05-28T01:57:05.650Z,0.00
2019-05-28T01:58:05.648Z,0.00
2019-05-28T01:59:05.628Z,0.00
2019-05-28T02:00:05.615Z,0.00
2019-05-28T02:01:12.782Z,0.00
2019-05-28T02:02:06.592Z,0.00
2019-05-28T02:03:05.582Z,0.00
2019-05-28T02:04:05.577Z,0.00
2019-05-28T02:05:05.561Z,0.00
2019-05-28T02:06:05.549Z,0.00
2019-05-28T02:07:05.540Z,0.00
2019-05-28T02:08:05.533Z,0.00
2019-05-28T02:09:05.514Z,0.00
2019-05-28T02:10:05.531Z,0.00
2019-05-28T02:11:05.491Z,0.00
2019-05-28T02:12:05.482Z,0.00
2019-05-28T02:13:05.471Z,0.00
2019-05-28T02:14:05.458Z,0.00
2019-05-28T02:15:05.450Z,0.00
2019-05-28T02:16:05.457Z,0.00
2019-05-28T02:17:05.426Z,0.00
2019-05-28T02:18:05.414Z,0.00
2019-05-28T02:19:05.405Z,0.00
2019-05-28T02:20:05.405Z,0.00
2019-05-28T02:21:05.380Z,0.00
2019-05-28T02:22:05.377Z,0.00
2019-05-28T02:23:05.360Z,0.00
2019-05-28T02:24:05.346Z,0.00
2019-05-28T02:25:05.339Z,0.00
2019-05-28T02:26:05.325Z,0.00
2019-05-28T02:27:05.312Z,0.00
2019-05-28T02:28:05.311Z,0.00
2019-05-28T02:29:05.293Z,0.00
2019-05-28T02:30:05.281Z,0.00
2019-05-28T02:31:05.271Z,0.00
2019-05-28T02:32:05.259Z,0.00
2019-05-28T02:33:05.246Z,0.00
2019-05-28T02:34:05.243Z,0.00
2019-05-28T02:35:05.224Z,0.00
2019-05-28T02:36:05.212Z,0.00
2019-05-28T02:37:05.202Z,0.00
2019-05-28T02:38:05.193Z,0.00
2019-05-28T02:39:05.179Z,4.00
2019-05-28T02:40:05.175Z,4.00
2019-05-28T02:41:05.159Z,4.00
2019-05-28T02:42:05.146Z,4.00
2019-05-28T02:43:05.135Z,4.00
2019-05-28T02:44:05.123Z,4.00
2019-05-28T02:45:05.112Z,4.00
2019-05-28T02:46:05.107Z,4.00
2019-05-28T02:47:05.089Z,4.00
2019-05-28T02:48:05.080Z,4.00
2019-05-28T02:49:05.069Z,8.00
2019-05-28T02:50:05.059Z,8.00
2019-05-28T02:51:05.049Z,8.00
2019-05-28T02:52:05.068Z,4.00
2019-05-28T02:53:05.023Z,8.00
2019-05-28T02:54:05.011Z,8.00
2019-05-28T02:55:05.004Z,8.00
2019-05-28T02:56:04.992Z,12.00
2019-05-28T02:57:04.979Z,12.00
2019-05-28T02:58:04.974Z,8.00
2019-05-28T02:59:04.956Z,8.00
2019-05-28T03:00:04.957Z,12.00
2019-05-28T03:01:04.934Z,12.00
2019-05-28T03:02:04.924Z,12.00
2019-05-28T03:03:04.915Z,16.00
2019-05-28T03:04:04.909Z,16.00
2019-05-28T03:05:04.889Z,12.00
2019-05-28T03:06:04.878Z,12.00
2019-05-28T03:07:04.866Z,16.00
2019-05-28T03:08:04.855Z,16.00
2019-05-28T03:09:04.845Z,16.00
2019-05-28T03:10:04.854Z,16.00
2019-05-28T03:11:04.953Z,20.00
2019-05-28T03:12:04.812Z,20.00
2019-05-28T03:13:04.813Z,20.00
2019-05-28T03:14:04.790Z,20.00
2019-05-28T03:15:04.776Z,20.00
2019-05-28T03:16:04.785Z,24.00
2019-05-28T03:17:04.757Z,24.00
2019-05-28T03:18:04.742Z,24.00
2019-05-28T03:19:04.735Z,28.00
2019-05-28T03:20:04.723Z,24.00
2019-05-28T03:21:04.709Z,28.00
2019-05-28T03:22:04.726Z,28.00
2019-05-28T03:23:04.689Z,28.00
2019-05-28T03:24:04.675Z,28.00
2019-05-28T03:25:04.664Z,28.00
2019-05-28T03:26:04.666Z,28.00
2019-05-28T03:27:04.644Z,28.00
2019-05-28T03:28:04.638Z,28.00
2019-05-28T03:29:04.621Z,32.00
2019-05-28T03:30:04.617Z,32.00
2019-05-28T03:31:04.599Z,32.00
2019-05-28T03:32:08.621Z,36.00
2019-05-28T03:33:04.677Z,40.00
2019-05-28T03:34:04.590Z,44.00
2019-05-28T03:35:04.557Z,48.00
2019-05-28T03:36:04.546Z,48.00
2019-05-28T03:37:04.535Z,48.00
2019-05-28T03:38:04.522Z,52.00
2019-05-28T03:39:04.511Z,56.00
2019-05-28T03:40:04.606Z,56.00
2019-05-28T03:41:04.522Z,60.00
2019-05-28T03:42:04.492Z,64.00
2019-05-28T03:43:04.481Z,68.00
2019-05-28T03:44:04.458Z,68.00
2019-05-28T03:45:04.444Z,76.00
2019-05-28T03:46:04.463Z,76.00
2019-05-28T03:47:04.422Z,80.00
2019-05-28T03:48:04.411Z,76.00
2019-05-28T03:49:04.399Z,76.00
2019-05-28T03:50:04.389Z,80.00
2019-05-28T03:51:04.383Z,80.00
2019-05-28T03:52:04.395Z,84.00
2019-05-28T03:53:04.355Z,84.00
2019-05-28T03:54:04.346Z,88.00
2019-05-28T03:55:04.332Z,88.00
2019-05-28T03:56:04.321Z,84.00
2019-05-28T03:57:04.311Z,84.00
2019-05-28T03:58:04.323Z,84.00
2019-05-28T03:59:04.288Z,88.00
2019-05-28T04:00:04.280Z,92.00
2019-05-28T04:01:04.263Z,96.00
2019-05-28T04:02:04.251Z,92.00
2019-05-28T04:03:04.239Z,92.00
2019-05-28T04:04:04.257Z,88.00
2019-05-28T04:05:04.229Z,84.00
2019-05-28T04:06:04.208Z,84.00
2019-05-28T04:07:04.197Z,84.00
2019-05-28T04:08:04.366Z,84.00
2019-05-28T04:09:04.173Z,88.00
2019-05-28T04:10:04.169Z,88.00
2019-05-28T04:11:04.150Z,100.00
2019-05-28T04:12:04.140Z,104.00
2019-05-28T04:13:04.128Z,108.00
2019-05-28T04:14:04.116Z,108.00
2019-05-28T04:15:04.106Z,112.00
2019-05-28T04:16:04.101Z,116.00
2019-05-28T04:17:04.082Z,116.00
2019-05-28T04:18:04.079Z,116.00
2019-05-28T04:19:04.060Z,120.00
2019-05-28T04:20:04.049Z,120.00
2019-05-28T04:21:04.038Z,120.00
2019-05-28T04:22:04.033Z,120.00
2019-05-28T04:23:04.016Z,120.00
2019-05-28T04:24:04.005Z,124.00
2019-05-28T04:25:04.012Z,124.00
2019-05-28T04:26:03.984Z,124.00
2019-05-28T04:27:03.976Z,120.00
2019-05-28T04:28:03.979Z,116.00
2019-05-28T04:29:03.952Z,116.00
2019-05-28T04:30:03.941Z,120.00
2019-05-28T04:31:04.013Z,124.00
2019-05-28T04:32:03.915Z,124.00
2019-05-28T04:33:03.904Z,120.00
2019-05-28T04:34:03.925Z,116.00
2019-05-28T04:35:03.881Z,120.00
2019-05-28T04:36:03.869Z,120.00
2019-05-28T04:37:03.861Z,120.00
2019-05-28T04:38:03.847Z,116.00
2019-05-28T04:39:03.837Z,116.00
2019-05-28T04:40:03.866Z,116.00
2019-05-28T04:41:03.813Z,124.00
2019-05-28T04:42:03.803Z,132.00
2019-05-28T04:43:03.827Z,136.00
2019-05-28T04:44:03.782Z,144.00
2019-05-28T04:45:03.770Z,152.00
2019-05-28T04:46:03.764Z,168.00
2019-05-28T04:47:03.747Z,184.00
2019-05-28T04:48:03.738Z,196.00
2019-05-28T04:49:03.731Z,208.00
2019-05-28T04:50:03.714Z,216.00
2019-05-28T04:51:03.702Z,220.00
2019-05-28T04:52:03.756Z,228.00
2019-05-28T04:53:03.680Z,236.00
2019-05-28T04:54:03.669Z,240.00
2019-05-28T04:55:03.658Z,244.00
2019-05-28T04:56:03.653Z,248.00
2019-05-28T04:57:03.637Z,248.00
2019-05-28T04:58:03.643Z,248.00
2019-05-28T04:59:04.062Z,252.00
2019-05-28T05:00:03.602Z,256.00
2019-05-28T05:01:03.652Z,256.00
2019-05-28T05:02:03.590Z,260.00
2019-05-28T05:03:03.571Z,256.00
2019-05-28T05:04:03.562Z,256.00
2019-05-28T05:05:03.546Z,248.00
2019-05-28T05:06:03.533Z,252.00
2019-05-28T05:07:03.527Z,248.00
2019-05-28T05:08:03.511Z,252.00
2019-05-28T05:09:03.499Z,260.00
2019-05-28T05:10:03.495Z,264.00
2019-05-28T05:11:03.477Z,264.00
2019-05-28T05:12:03.470Z,264.00
2019-05-28T05:13:03.455Z,264.00
2019-05-28T05:14:03.444Z,268.00
2019-05-28T05:15:03.463Z,280.00
2019-05-28T05:16:03.428Z,304.00
2019-05-28T05:17:03.410Z,324.00
2019-05-28T05:18:03.399Z,328.00
2019-05-28T05:19:03.390Z,336.00
2019-05-28T05:20:03.378Z,336.00
2019-05-28T05:21:03.377Z,348.00
2019-05-28T05:22:03.363Z,360.00
2019-05-28T05:23:03.349Z,376.00
2019-05-28T05:24:03.339Z,380.00
2019-05-28T05:25:03.323Z,376.00
2019-05-28T05:26:03.312Z,376.00
2019-05-28T05:27:03.299Z,380.00
2019-05-28T05:28:03.299Z,384.00
2019-05-28T05:29:03.292Z,388.00
2019-05-28T05:30:03.290Z,380.00
2019-05-28T05:31:03.256Z,372.00
2019-05-28T05:32:03.242Z,372.00
2019-05-28T05:33:19.255Z,384.00
2019-05-28T05:34:04.225Z,400.00
2019-05-28T05:35:03.210Z,424.00
2019-05-28T05:36:03.198Z,432.00
2019-05-28T05:37:03.190Z,428.00
2019-05-28T05:38:03.174Z,408.00
2019-05-28T05:39:03.167Z,408.00
2019-05-28T05:40:03.160Z,404.00
2019-05-28T05:41:03.141Z,396.00
2019-05-28T05:42:03.130Z,392.00
2019-05-28T05:43:03.121Z,388.00
2019-05-28T05:44:03.108Z,372.00
2019-05-28T05:45:03.097Z,372.00
2019-05-28T05:46:03.106Z,372.00
2019-05-28T05:47:03.084Z,376.00
2019-05-28T05:48:03.065Z,376.00
2019-05-28T05:49:03.052Z,392.00
2019-05-28T05:50:03.043Z,408.00
2019-05-28T05:51:03.052Z,420.00
2019-05-28T05:52:03.027Z,420.00
2019-05-28T05:53:03.013Z,400.00
2019-05-28T05:54:02.998Z,392.00
2019-05-28T05:55:02.985Z,384.00
2019-05-28T05:56:02.974Z,376.00
2019-05-28T05:57:02.965Z,376.00
2019-05-28T05:58:02.958Z,368.00
2019-05-28T05:59:02.942Z,372.00
2019-05-28T06:00:02.935Z,380.00
2019-05-28T06:01:02.918Z,392.00
2019-05-28T06:02:02.907Z,400.00
2019-05-28T06:03:02.900Z,404.00
2019-05-28T06:04:02.892Z,396.00
2019-05-28T06:05:02.876Z,388.00
2019-05-28T06:06:02.863Z,392.00
2019-05-28T06:07:02.851Z,392.00
2019-05-28T06:08:02.862Z,392.00
2019-05-28T06:09:02.827Z,404.00
2019-05-28T06:10:02.860Z,412.00
2019-05-28T06:11:02.809Z,408.00
2019-05-28T06:12:02.797Z,412.00
2019-05-28T06:13:02.790Z,416.00
2019-05-28T06:14:02.774Z,420.00
2019-05-28T06:15:02.774Z,424.00
2019-05-28T06:16:02.765Z,428.00
2019-05-28T06:17:02.742Z,432.00
2019-05-28T06:18:02.895Z,436.00
2019-05-28T06:19:02.780Z,436.00
2019-05-28T06:20:02.708Z,436.00
2019-05-28T06:21:12.005Z,436.00
2019-05-28T06:22:03.691Z,444.00
2019-05-28T06:23:02.672Z,456.00
2019-05-28T06:24:02.665Z,468.00
2019-05-28T06:25:02.653Z,488.00
2019-05-28T06:26:02.638Z,516.00
2019-05-28T06:27:02.630Z,540.00
2019-05-28T06:28:02.622Z,560.00
2019-05-28T06:29:02.609Z,580.00
2019-05-28T06:30:02.593Z,604.00
2019-05-28T06:31:02.583Z,628.00
2019-05-28T06:32:02.572Z,640.00
2019-05-28T06:33:02.561Z,648.00
2019-05-28T06:34:02.595Z,652.00
2019-05-28T06:35:02.538Z,644.00
2019-05-28T06:36:02.527Z,640.00
2019-05-28T06:37:02.516Z,636.00
2019-05-28T06:38:02.505Z,632.00
2019-05-28T06:39:02.496Z,616.00
2019-05-28T06:40:02.488Z,620.00
2019-05-28T06:41:02.472Z,620.00
2019-05-28T06:42:02.461Z,616.00
2019-05-28T06:43:02.450Z,608.00
2019-05-28T06:44:02.436Z,596.00
2019-05-28T06:45:02.429Z,584.00
2019-05-28T06:46:02.421Z,572.00
2019-05-28T06:47:02.405Z,572.00
2019-05-28T06:48:02.392Z,572.00
2019-05-28T06:49:02.382Z,576.00
2019-05-28T06:50:02.372Z,584.00
2019-05-28T06:51:02.358Z,596.00
2019-05-28T06:52:02.358Z,604.00
2019-05-28T06:53:02.341Z,620.00
2019-05-28T06:54:02.328Z,632.00
2019-05-28T06:55:02.382Z,640.00
2019-05-28T06:56:02.430Z,652.00
2019-05-28T06:57:02.293Z,660.00
2019-05-28T06:58:02.292Z,676.00
2019-05-28T06:59:02.272Z,676.00
2019-05-28T07:00:02.260Z,680.00
2019-05-28T07:01:02.750Z,684.00
2019-05-28T07:02:02.240Z,688.00
2019-05-28T07:03:02.233Z,688.00
2019-05-28T07:04:13.542Z,688.00
2019-05-28T07:05:03.201Z,680.00
2019-05-28T07:06:07.284Z,680.00
2019-05-28T07:07:03.179Z,688.00
2019-05-28T07:08:02.192Z,700.00
2019-05-28T07:09:02.159Z,724.00
2019-05-28T07:10:02.179Z,740.00
2019-05-28T07:11:02.152Z,748.00
2019-05-28T07:12:02.129Z,744.00
2019-05-28T07:13:02.118Z,728.00
2019-05-28T07:14:02.104Z,720.00
2019-05-28T07:15:02.206Z,724.00
2019-05-28T07:16:02.111Z,736.00
2019-05-28T07:17:02.069Z,760.00
2019-05-28T07:18:02.064Z,784.00
2019-05-28T07:19:02.050Z,788.00
2019-05-28T07:20:02.036Z,796.00
2019-05-28T07:21:02.024Z,800.00
2019-05-28T07:22:02.041Z,800.00
2019-05-28T07:23:02.004Z,808.00
2019-05-28T07:24:05.036Z,812.00
2019-05-28T07:25:01.987Z,812.00
2019-05-28T07:26:01.970Z,808.00
2019-05-28T07:27:01.975Z,808.00
2019-05-28T07:28:11.027Z,808.00
2019-05-28T07:29:02.934Z,800.00
2019-05-28T07:30:01.961Z,800.00
2019-05-28T07:31:01.917Z,796.00
2019-05-28T07:32:01.903Z,800.00
2019-05-28T07:33:01.915Z,796.00
2019-05-28T07:34:01.909Z,780.00
2019-05-28T07:35:01.870Z,760.00
2019-05-28T07:36:01.862Z,760.00
2019-05-28T07:37:01.847Z,776.00
2019-05-28T07:38:01.853Z,812.00
2019-05-28T07:39:01.837Z,868.00
2019-05-28T07:40:01.843Z,912.00
2019-05-28T07:41:01.836Z,932.00
2019-05-28T07:42:01.839Z,940.00
2019-05-28T07:43:01.778Z,948.00
2019-05-28T07:44:01.768Z,952.00
2019-05-28T07:45:01.841Z,952.00
2019-05-28T07:46:01.754Z,956.00
2019-05-28T07:47:01.732Z,956.00
2019-05-28T07:48:01.726Z,968.00
2019-05-28T07:49:01.712Z,976.00
2019-05-28T07:50:01.710Z,980.00
2019-05-28T07:51:01.689Z,968.00
2019-05-28T07:52:01.685Z,960.00
2019-05-28T07:53:01.667Z,944.00
2019-05-28T07:54:01.688Z,928.00
2019-05-28T07:55:01.644Z,924.00
2019-05-28T07:56:01.639Z,920.00
2019-05-28T07:57:01.634Z,924.00
2019-05-28T07:58:01.697Z,924.00
2019-05-28T07:59:01.601Z,924.00
2019-05-28T08:00:05.336Z,932.00
2019-05-28T08:01:01.577Z,936.00
2019-05-28T08:02:01.567Z,940.00
2019-05-28T08:03:01.556Z,944.00
2019-05-28T08:04:01.600Z,944.00
2019-05-28T08:05:01.539Z,948.00
2019-05-28T08:06:01.523Z,952.00
2019-05-28T08:07:01.521Z,956.00
2019-05-28T08:08:01.499Z,964.00
2019-05-28T08:09:01.512Z,968.00
2019-05-28T08:10:01.510Z,968.00
2019-05-28T08:11:01.588Z,968.00
2019-05-28T08:12:01.456Z,972.00
2019-05-28T08:13:01.444Z,976.00
2019-05-28T08:14:01.432Z,972.00
2019-05-28T08:15:01.423Z,964.00
2019-05-28T08:16:17.443Z,964.00
2019-05-28T08:17:02.407Z,968.00
2019-05-28T08:18:01.389Z,984.00
2019-05-28T08:19:01.377Z,1000.00
2019-05-28T08:20:01.380Z,1032.00
2019-05-28T08:21:01.353Z,1060.00
2019-05-28T08:22:01.390Z,1084.00
2019-05-28T08:23:01.338Z,1100.00
2019-05-28T08:24:01.320Z,1116.00
2019-05-28T08:25:01.312Z,1124.00
2019-05-28T08:26:02.102Z,1136.00
2019-05-28T08:27:01.289Z,1140.00
2019-05-28T08:28:18.442Z,1148.00
2019-05-28T08:29:02.264Z,1144.00
2019-05-28T08:30:01.256Z,1148.00
2019-05-28T08:31:14.988Z,1148.00
2019-05-28T08:32:02.230Z,1160.00
2019-05-28T08:33:01.223Z,1172.00
2019-05-28T08:34:02.030Z,1188.00
2019-05-28T08:35:05.311Z,1192.00
2019-05-28T08:36:01.189Z,1204.00
2019-05-28T08:37:05.811Z,1216.00
2019-05-28T08:38:02.163Z,1240.00
2019-05-28T08:39:01.154Z,1264.00
2019-05-28T08:40:01.152Z,1284.00
2019-05-28T08:41:01.132Z,1292.00
2019-05-28T08:42:01.122Z,1312.00
2019-05-28T08:43:01.113Z,1336.00
2019-05-28T08:44:01.099Z,1340.00
2019-05-28T08:45:01.086Z,1336.00
2019-05-28T08:46:01.086Z,1316.00
2019-05-28T08:47:01.067Z,1304.00
2019-05-28T08:48:01.054Z,1288.00
2019-05-28T08:49:01.043Z,1280.00
2019-05-28T08:50:01.029Z,1248.00
2019-05-28T08:51:01.020Z,1256.00
2019-05-28T08:52:01.017Z,1264.00
2019-05-28T08:53:00.997Z,1272.00
2019-05-28T08:54:00.985Z,1288.00
2019-05-28T08:55:00.975Z,1280.00
2019-05-28T08:56:00.962Z,1268.00
2019-05-28T08:57:00.955Z,1248.00
2019-05-28T08:58:02.037Z,1232.00
2019-05-28T08:59:00.932Z,1168.00
2019-05-28T09:00:00.922Z,1164.00
2019-05-28T09:01:00.910Z,1104.00
2019-05-28T09:02:00.898Z,1124.00
2019-05-28T09:03:05.037Z,1144.00
2019-05-28T09:04:00.882Z,1192.00
2019-05-28T09:05:00.863Z,1264.00
2019-05-28T09:06:00.852Z,1320.00
2019-05-28T09:07:00.840Z,1308.00
2019-05-28T09:08:00.846Z,1280.00
2019-05-28T09:09:00.819Z,1196.00
2019-05-28T09:10:01.355Z,1132.00
2019-05-28T09:11:00.814Z,1096.00
2019-05-28T09:12:00.784Z,1088.00
2019-05-28T09:13:00.773Z,1068.00
2019-05-28T09:14:00.763Z,1072.00
2019-05-28T09:15:00.757Z,1100.00
2019-05-28T09:16:00.770Z,1132.00
2019-05-28T09:17:00.738Z,1140.00
2019-05-28T09:18:00.721Z,1116.00
2019-05-28T09:19:00.709Z,1084.00
2019-05-28T09:20:00.697Z,1060.00
2019-05-28T09:21:00.751Z,1052.00
2019-05-28T09:22:00.684Z,1056.00
2019-05-28T09:23:00.662Z,1052.00
2019-05-28T09:24:00.651Z,1040.00
2019-05-28T09:25:01.269Z,1004.00
2019-05-28T09:26:00.628Z,956.00
2019-05-28T09:27:00.622Z,928.00
2019-05-28T09:28:00.676Z,912.00
2019-05-28T09:29:00.611Z,904.00
2019-05-28T09:30:00.584Z,904.00
2019-05-28T09:31:00.576Z,920.00
2019-05-28T09:32:00.561Z,936.00
2019-05-28T09:33:00.558Z,948.00
2019-05-28T09:34:00.573Z,920.00
2019-05-28T09:35:02.733Z,904.00
2019-05-28T09:36:08.163Z,884.00
2019-05-28T09:37:01.504Z,916.00
2019-05-28T09:38:00.501Z,944.00
2019-05-28T09:39:00.487Z,976.00
2019-05-28T09:40:00.502Z,984.00
2019-05-28T09:41:00.460Z,984.00
2019-05-28T09:42:00.452Z,976.00
2019-05-28T09:43:00.441Z,980.00
2019-05-28T09:44:00.427Z,980.00
2019-05-28T09:45:00.421Z,960.00
2019-05-28T09:46:00.414Z,916.00
2019-05-28T09:47:00.401Z,868.00
2019-05-28T09:48:00.383Z,764.00
2019-05-28T09:49:00.371Z,688.00
2019-05-28T09:50:00.474Z,776.00
2019-05-28T09:51:00.361Z,968.00
2019-05-28T09:52:00.373Z,1108.00
2019-05-28T09:53:00.330Z,1156.00
2019-05-28T09:54:00.320Z,1160.00
2019-05-28T09:55:00.307Z,1140.00
2019-05-28T09:56:00.294Z,1124.00
2019-05-28T09:57:00.282Z,1116.00
2019-05-28T09:58:00.280Z,1116.00
2019-05-28T09:59:00.261Z,1120.00
2019-05-28T10:00:00.268Z,1104.00
2019-05-28T10:01:00.240Z,1092.00
2019-05-28T10:02:00.226Z,1076.00
2019-05-28T10:03:00.222Z,1056.00
2019-05-28T10:04:00.238Z,1052.00
2019-05-28T10:05:00.194Z,1064.00
2019-05-28T10:06:15.553Z,1100.00
2019-05-28T10:07:01.200Z,1152.00
2019-05-28T10:08:00.160Z,1188.00
2019-05-28T10:09:00.158Z,1184.00
2019-05-28T10:10:00.172Z,1204.00
2019-05-28T10:11:00.127Z,1328.00
2019-05-28T10:12:00.118Z,1408.00
2019-05-28T10:13:00.104Z,1428.00
2019-05-28T10:14:00.092Z,1444.00
2019-05-28T10:15:00.087Z,1468.00
2019-05-28T10:16:00.105Z,1516.00
2019-05-28T10:17:00.060Z,1528.00
2019-05-28T10:18:00.048Z,1512.00
2019-05-28T10:19:00.038Z,1464.00
2019-05-28T10:20:00.024Z,1424.00
2019-05-28T10:21:16.973Z,1420.00
2019-05-28T10:22:01.030Z,1448.00
2019-05-28T10:22:59.992Z,1504.00
2019-05-28T10:23:59.983Z,1548.00
2019-05-28T10:24:59.970Z,1568.00
2019-05-28T10:25:59.960Z,1596.00
2019-05-28T10:26:59.948Z,1632.00
2019-05-28T10:28:01.721Z,1664.00
2019-05-28T10:28:59.928Z,1656.00
2019-05-28T10:29:59.914Z,1588.00
2019-05-28T10:30:59.906Z,1644.00
2019-05-28T10:31:59.891Z,1688.00
2019-05-28T10:32:59.882Z,1564.00
2019-05-28T10:33:59.903Z,1548.00
2019-05-28T10:35:03.886Z,1696.00
2019-05-28T10:35:59.848Z,1756.00
2019-05-28T10:36:59.837Z,1756.00
2019-05-28T10:37:59.833Z,1780.00
2019-05-28T10:38:59.813Z,1692.00
2019-05-28T10:39:59.832Z,1536.00
2019-05-28T10:40:59.792Z,1352.00
2019-05-28T10:41:59.782Z,1372.00
2019-05-28T10:42:59.771Z,1496.00
2019-05-28T10:43:59.759Z,1564.00
2019-05-28T10:44:59.753Z,1736.00
2019-05-28T10:45:59.815Z,1848.00
2019-05-28T10:46:59.731Z,1676.00
2019-05-28T10:47:59.715Z,1376.00
2019-05-28T10:48:59.703Z,1280.00
2019-05-28T10:49:59.695Z,1260.00
2019-05-28T10:50:59.681Z,1404.00
2019-05-28T10:51:59.700Z,1268.00
2019-05-28T10:52:59.659Z,984.00
2019-05-28T10:53:59.646Z,716.00
2019-05-28T10:55:02.648Z,712.00
2019-05-28T10:55:59.624Z,836.00
2019-05-28T10:56:59.626Z,956.00
2019-05-28T10:57:59.617Z,1480.00
2019-05-28T10:58:59.593Z,1648.00
2019-05-28T10:59:59.578Z,1612.00
2019-05-28T11:00:59.577Z,1512.00
2019-05-28T11:01:59.558Z,1712.00
2019-05-28T11:02:59.549Z,1852.00
2019-05-28T11:03:59.572Z,1820.00
2019-05-28T11:04:59.527Z,1776.00
2019-05-28T11:05:59.516Z,1396.00
2019-05-28T11:06:59.503Z,1296.00
2019-05-28T11:07:59.490Z,1308.00
2019-05-28T11:08:59.483Z,1472.00
2019-05-28T11:09:59.501Z,1720.00
2019-05-28T11:10:59.457Z,1828.00
2019-05-28T11:11:59.523Z,1924.00
2019-05-28T11:12:59.439Z,2052.00
2019-05-28T11:13:59.423Z,1980.00
2019-05-28T11:14:59.443Z,2032.00
2019-05-28T11:15:59.438Z,2196.00
2019-05-28T11:16:59.390Z,2320.00
2019-05-28T11:17:59.381Z,2288.00
2019-05-28T11:18:59.370Z,2056.00
2019-05-28T11:19:59.360Z,1824.00
2019-05-28T11:20:59.350Z,1472.00
2019-05-28T11:21:59.342Z,1060.00
2019-05-28T11:22:59.324Z,800.00
2019-05-28T11:23:59.313Z,696.00
2019-05-28T11:24:59.309Z,676.00
2019-05-28T11:25:59.292Z,764.00
2019-05-28T11:26:59.278Z,844.00
2019-05-28T11:27:59.291Z,832.00
2019-05-28T11:28:59.255Z,800.00
2019-05-28T11:29:59.257Z,788.00
2019-05-28T11:30:59.234Z,812.00
2019-05-28T11:31:59.223Z,1124.00
2019-05-28T11:32:59.212Z,1628.00
2019-05-28T11:33:59.230Z,2100.00
2019-05-28T11:34:59.198Z,2248.00
2019-05-28T11:35:59.177Z,2256.00
2019-05-28T11:37:09.085Z,2200.00
2019-05-28T11:38:00.155Z,2240.00
2019-05-28T11:38:59.146Z,2260.00
2019-05-28T11:39:59.169Z,2160.00
2019-05-28T11:40:59.123Z,1936.00
2019-05-28T11:41:59.111Z,1684.00
2019-05-28T11:42:59.099Z,1504.00
2019-05-28T11:43:59.088Z,1096.00
2019-05-28T11:44:59.083Z,692.00
2019-05-28T11:45:59.075Z,516.00
2019-05-28T11:46:59.058Z,420.00
2019-05-28T11:47:59.046Z,384.00
2019-05-28T11:48:59.045Z,380.00
2019-05-28T11:49:59.035Z,380.00
2019-05-28T11:50:59.011Z,404.00
2019-05-28T11:51:59.043Z,492.00
2019-05-28T11:52:58.990Z,636.00
2019-05-28T11:53:58.977Z,704.00
2019-05-28T11:54:58.971Z,832.00
2019-05-28T11:55:58.957Z,956.00
2019-05-28T11:56:58.944Z,1076.00
2019-05-28T11:57:58.954Z,1032.00
2019-05-28T11:58:58.930Z,892.00
2019-05-28T11:59:58.910Z,696.00
2019-05-28T12:00:58.908Z,564.00
2019-05-28T12:01:58.909Z,592.00
2019-05-28T12:02:58.876Z,692.00
2019-05-28T12:03:58.896Z,760.00
2019-05-28T12:04:58.899Z,768.00
2019-05-28T12:05:58.849Z,712.00
2019-05-28T12:06:58.832Z,632.00
2019-05-28T12:07:58.822Z,544.00
2019-05-28T12:08:58.831Z,492.00
2019-05-28T12:09:58.832Z,488.00
2019-05-28T12:10:58.866Z,528.00
2019-05-28T12:11:58.827Z,592.00
2019-05-28T12:12:58.932Z,608.00
2019-05-28T12:13:58.754Z,568.00
2019-05-28T12:14:58.742Z,504.00
2019-05-28T12:15:58.759Z,472.00
2019-05-28T12:16:58.723Z,492.00
2019-05-28T12:17:58.803Z,548.00
2019-05-28T12:18:58.704Z,632.00
2019-05-28T12:19:58.687Z,720.00
2019-05-28T12:20:58.676Z,888.00
2019-05-28T12:21:58.699Z,1000.00
2019-05-28T12:23:10.280Z,1144.00
2019-05-28T12:23:59.679Z,1216.00
2019-05-28T12:24:58.632Z,1200.00
2019-05-28T12:25:58.620Z,1084.00
2019-05-28T12:26:58.618Z,1044.00
2019-05-28T12:27:58.622Z,976.00
2019-05-28T12:28:58.589Z,888.00
2019-05-28T12:29:58.579Z,884.00
2019-05-28T12:30:58.564Z,836.00
2019-05-28T12:31:59.058Z,736.00
2019-05-28T12:32:58.542Z,644.00
2019-05-28T12:33:58.541Z,560.00
2019-05-28T12:34:58.524Z,488.00
2019-05-28T12:35:58.534Z,480.00